sensor_id;sensor_type;location;lat;lon;timestamp;pressure;altitude;pressure_sealevel;temperature;humidity
73600;BME280;61877;48.246;9.220;2023-05-07T00:02:02;94076.59;;;10.99;91.69
73600;BME280;61877;48.246;9.220;2023-05-07T00:04:27;94077.69;;;10.98;92.33
73600;BME280;61877;48.246;9.220;2023-05-07T00:06:53;94078.38;;;10.95;91.30
73600;BME280;61877;48.246;9.220;2023-05-07T00:09:21;94075.94;;;10.90;91.83
73600;BME280;61877;48.246;9.220;2023-05-07T00:11:46;94071.13;;;10.83;91.73
73600;BME280;61877;48.246;9.220;2023-05-07T00:14:12;94075.88;;;10.74;91.54
73600;BME280;61877;48.246;9.220;2023-05-07T00:16:37;94066.25;;;10.73;92.33
73600;BME280;61877;48.246;9.220;2023-05-07T00:19:04;94069.72;;;10.62;91.40
73600;BME280;61877;48.246;9.220;2023-05-07T00:21:29;94070.84;;;10.61;92.41
73600;BME280;61877;48.246;9.220;2023-05-07T00:23:55;94067.38;;;10.60;93.43
73600;BME280;61877;48.246;9.220;2023-05-07T00:26:20;94068.97;;;10.61;92.79
73600;BME280;61877;48.246;9.220;2023-05-07T00:28:45;94072.19;;;10.55;92.40
73600;BME280;61877;48.246;9.220;2023-05-07T00:31:11;94066.72;;;10.51;92.77
73600;BME280;61877;48.246;9.220;2023-05-07T00:33:37;94063.72;;;10.53;93.04
73600;BME280;61877;48.246;9.220;2023-05-07T00:36:04;94061.38;;;10.51;92.32
73600;BME280;61877;48.246;9.220;2023-05-07T00:38:30;94064.06;;;10.51;91.33
73600;BME280;61877;48.246;9.220;2023-05-07T00:40:56;94061.47;;;10.43;91.46
73600;BME280;61877;48.246;9.220;2023-05-07T00:43:21;94057.09;;;10.38;92.71
73600;BME280;61877;48.246;9.220;2023-05-07T00:45:47;94063.59;;;10.37;93.04
73600;BME280;61877;48.246;9.220;2023-05-07T00:48:13;94065.16;;;10.38;93.82
73600;BME280;61877;48.246;9.220;2023-05-07T00:50:38;94062.47;;;10.38;92.59
73600;BME280;61877;48.246;9.220;2023-05-07T00:53:06;94059.25;;;10.32;92.97
73600;BME280;61877;48.246;9.220;2023-05-07T00:55:32;94060.81;;;10.33;93.21
73600;BME280;61877;48.246;9.220;2023-05-07T00:57:58;94055.88;;;10.35;93.39
73600;BME280;61877;48.246;9.220;2023-05-07T01:00:23;94053.88;;;10.32;92.57
73600;BME280;61877;48.246;9.220;2023-05-07T01:02:48;94054.66;;;10.33;92.52
73600;BME280;61877;48.246;9.220;2023-05-07T01:05:15;94053.09;;;10.32;92.69
73600;BME280;61877;48.246;9.220;2023-05-07T01:07:43;94049.28;;;10.33;93.30
73600;BME280;61877;48.246;9.220;2023-05-07T01:10:10;94050.97;;;10.25;92.67
73600;BME280;61877;48.246;9.220;2023-05-07T01:12:37;94052.53;;;10.26;93.12
73600;BME280;61877;48.246;9.220;2023-05-07T01:15:04;94054.09;;;10.27;93.39
73600;BME280;61877;48.246;9.220;2023-05-07T01:17:33;94049.84;;;10.26;92.81
73600;BME280;61877;48.246;9.220;2023-05-07T01:20:04;94056.78;;;10.27;93.21
73600;BME280;61877;48.246;9.220;2023-05-07T01:22:32;94053.31;;;10.27;92.85
73600;BME280;61877;48.246;9.220;2023-05-07T01:24:58;94047.16;;;10.26;92.37
73600;BME280;61877;48.246;9.220;2023-05-07T01:27:23;94051.53;;;10.19;92.71
73600;BME280;61877;48.246;9.220;2023-05-07T01:29:48;94056.09;;;10.18;92.06
73600;BME280;61877;48.246;9.220;2023-05-07T01:32:15;94048.28;;;10.13;92.10
73600;BME280;61877;48.246;9.220;2023-05-07T01:34:45;94049.06;;;10.14;92.03
73600;BME280;61877;48.246;9.220;2023-05-07T01:37:12;94053.88;;;10.08;92.98
73600;BME280;61877;48.246;9.220;2023-05-07T01:39:40;94051.19;;;10.08;93.73
73600;BME280;61877;48.246;9.220;2023-05-07T01:42:06;94051.84;;;10.05;92.97
73600;BME280;61877;48.246;9.220;2023-05-07T01:44:34;94058.47;;;10.08;92.90
73600;BME280;61877;48.246;9.220;2023-05-07T01:47:01;94056.84;;;10.07;93.18
73600;BME280;61877;48.246;9.220;2023-05-07T01:49:27;94052.16;;;10.04;93.75
73600;BME280;61877;48.246;9.220;2023-05-07T01:51:53;94049.25;;;9.97;92.64
73600;BME280;61877;48.246;9.220;2023-05-07T01:54:18;94050.72;;;9.94;92.84
73600;BME280;61877;48.246;9.220;2023-05-07T01:56:45;94050.94;;;9.89;92.72
73600;BME280;61877;48.246;9.220;2023-05-07T01:59:10;94053.50;;;9.86;92.44
73600;BME280;61877;48.246;9.220;2023-05-07T02:01:35;94044.41;;;9.78;93.17
73600;BME280;61877;48.246;9.220;2023-05-07T02:04:03;94043.41;;;9.71;93.51
73600;BME280;61877;48.246;9.220;2023-05-07T02:06:29;94039.72;;;9.63;93.20
73600;BME280;61877;48.246;9.220;2023-05-07T02:08:54;94044.97;;;9.60;93.58
73600;BME280;61877;48.246;9.220;2023-05-07T02:11:23;94050.19;;;9.56;93.82
73600;BME280;61877;48.246;9.220;2023-05-07T02:13:52;94051.75;;;9.57;94.64
73600;BME280;61877;48.246;9.220;2023-05-07T02:16:20;94044.72;;;9.53;93.93
73600;BME280;61877;48.246;9.220;2023-05-07T02:18:45;94041.59;;;9.51;94.00
73600;BME280;61877;48.246;9.220;2023-05-07T02:21:10;94035.97;;;9.44;93.95
73600;BME280;61877;48.246;9.220;2023-05-07T02:23:38;94038.88;;;9.39;94.16
73600;BME280;61877;48.246;9.220;2023-05-07T02:26:04;94036.84;;;9.36;93.59
73600;BME280;61877;48.246;9.220;2023-05-07T02:28:32;94040.84;;;9.30;93.99
73600;BME280;61877;48.246;9.220;2023-05-07T02:31:02;94034.91;;;9.24;94.04
73600;BME280;61877;48.246;9.220;2023-05-07T02:33:27;94036.38;;;9.22;94.35
73600;BME280;61877;48.246;9.220;2023-05-07T02:35:55;94040.59;;;9.23;94.29
73600;BME280;61877;48.246;9.220;2023-05-07T02:38:23;94045.50;;;9.21;94.46
73600;BME280;61877;48.246;9.220;2023-05-07T02:40:50;94046.16;;;9.18;94.40
73600;BME280;61877;48.246;9.220;2023-05-07T02:43:15;94041.28;;;9.20;94.04
73600;BME280;61877;48.246;9.220;2023-05-07T02:45:41;94039.25;;;9.17;94.33
73600;BME280;61877;48.246;9.220;2023-05-07T02:48:07;94043.69;;;9.12;94.37
73600;BME280;61877;48.246;9.220;2023-05-07T02:50:33;94040.13;;;9.08;94.09
73600;BME280;61877;48.246;9.220;2023-05-07T02:52:58;94038.94;;;8.97;93.50
73600;BME280;61877;48.246;9.220;2023-05-07T02:55:27;94043.25;;;8.90;93.74
73600;BME280;61877;48.246;9.220;2023-05-07T02:57:54;94041.13;;;8.83;94.23
73600;BME280;61877;48.246;9.220;2023-05-07T03:00:23;94039.09;;;8.80;95.00
73600;BME280;61877;48.246;9.220;2023-05-07T03:02:48;94040.97;;;8.80;95.37
73600;BME280;61877;48.246;9.220;2023-05-07T03:05:15;94046.28;;;8.88;95.41
73600;BME280;61877;48.246;9.220;2023-05-07T03:07:43;94050.50;;;8.89;95.36
73600;BME280;61877;48.246;9.220;2023-05-07T03:10:09;94052.59;;;8.84;95.44
73600;BME280;61877;48.246;9.220;2023-05-07T03:12:34;94044.44;;;8.80;95.15
73600;BME280;61877;48.246;9.220;2023-05-07T03:14:59;94045.41;;;8.76;94.45
73600;BME280;61877;48.246;9.220;2023-05-07T03:17:25;94049.41;;;8.70;93.95
73600;BME280;61877;48.246;9.220;2023-05-07T03:19:50;94050.25;;;8.62;93.90
73600;BME280;61877;48.246;9.220;2023-05-07T03:22:17;94055.47;;;8.58;93.69
73600;BME280;61877;48.246;9.220;2023-05-07T03:24:42;94055.66;;;8.53;94.34
73600;BME280;61877;48.246;9.220;2023-05-07T03:27:13;94058.03;;;8.46;94.49
73600;BME280;61877;48.246;9.220;2023-05-07T03:29:38;94056.34;;;8.42;94.62
73600;BME280;61877;48.246;9.220;2023-05-07T03:32:04;94044.88;;;8.41;95.08
73600;BME280;61877;48.246;9.220;2023-05-07T03:34:32;94048.00;;;8.43;94.38
73600;BME280;61877;48.246;9.220;2023-05-07T03:36:57;94040.97;;;8.39;94.21
73600;BME280;61877;48.246;9.220;2023-05-07T03:39:27;94049.94;;;8.34;94.14
73600;BME280;61877;48.246;9.220;2023-05-07T03:41:52;94043.69;;;8.30;94.36
73600;BME280;61877;48.246;9.220;2023-05-07T03:44:20;94041.34;;;8.29;95.78
73600;BME280;61877;48.246;9.220;2023-05-07T03:46:48;94044.78;;;8.29;94.91
73600;BME280;61877;48.246;9.220;2023-05-07T03:51:54;94055.03;;;8.19;94.64
73600;BME280;61877;48.246;9.220;2023-05-07T03:54:22;94055.38;;;8.17;95.53
73600;BME280;61877;48.246;9.220;2023-05-07T03:56:53;94053.78;;;8.16;94.49
73600;BME280;61877;48.246;9.220;2023-05-07T03:59:18;94056.50;;;8.08;93.74
73600;BME280;61877;48.246;9.220;2023-05-07T04:01:49;94062.16;;;8.06;94.58
73600;BME280;61877;48.246;9.220;2023-05-07T04:04:14;94060.75;;;8.09;94.74
73600;BME280;61877;48.246;9.220;2023-05-07T04:06:43;94063.28;;;8.05;94.68
73600;BME280;61877;48.246;9.220;2023-05-07T04:09:11;94062.81;;;8.03;94.97
73600;BME280;61877;48.246;9.220;2023-05-07T04:11:36;94063.44;;;8.00;95.26
73600;BME280;61877;48.246;9.220;2023-05-07T04:14:11;94062.16;;;8.06;95.25
73600;BME280;61877;48.246;9.220;2023-05-07T04:16:37;94059.31;;;8.11;95.10
73600;BME280;61877;48.246;9.220;2023-05-07T04:19:02;94058.66;;;8.14;94.95
73600;BME280;61877;48.246;9.220;2023-05-07T04:21:33;94056.78;;;8.15;94.05
73600;BME280;61877;48.246;9.220;2023-05-07T04:23:58;94065.13;;;8.13;93.88
73600;BME280;61877;48.246;9.220;2023-05-07T04:26:24;94061.63;;;8.21;94.17
73600;BME280;61877;48.246;9.220;2023-05-07T04:28:50;94061.94;;;8.28;94.34
73600;BME280;61877;48.246;9.220;2023-05-07T04:31:16;94063.28;;;8.34;93.58
73600;BME280;61877;48.246;9.220;2023-05-07T04:33:52;94059.59;;;8.47;92.84
73600;BME280;61877;48.246;9.220;2023-05-07T04:36:18;94061.50;;;8.47;93.42
73600;BME280;61877;48.246;9.220;2023-05-07T04:38:43;94062.69;;;8.58;93.89
73600;BME280;61877;48.246;9.220;2023-05-07T04:41:19;94059.97;;;8.66;92.79
73600;BME280;61877;48.246;9.220;2023-05-07T04:43:48;94060.94;;;8.82;93.44
73600;BME280;61877;48.246;9.220;2023-05-07T04:46:23;94060.88;;;8.91;92.37
73600;BME280;61877;48.246;9.220;2023-05-07T04:48:51;94060.34;;;8.97;92.87
73600;BME280;61877;48.246;9.220;2023-05-07T04:51:17;94067.78;;;9.12;92.09
73600;BME280;61877;48.246;9.220;2023-05-07T04:53:42;94077.88;;;9.28;91.69
73600;BME280;61877;48.246;9.220;2023-05-07T04:56:21;94071.78;;;9.39;90.45
73600;BME280;61877;48.246;9.220;2023-05-07T04:58:49;94074.09;;;9.61;90.49
73600;BME280;61877;48.246;9.220;2023-05-07T05:01:14;94079.56;;;9.65;89.11
73600;BME280;61877;48.246;9.220;2023-05-07T05:03:42;94085.19;;;9.84;89.53
73600;BME280;61877;48.246;9.220;2023-05-07T05:06:08;94079.63;;;10.01;88.94
73600;BME280;61877;48.246;9.220;2023-05-07T05:08:33;94084.50;;;10.19;88.49
73600;BME280;61877;48.246;9.220;2023-05-07T05:11:06;94086.41;;;10.31;87.53
73600;BME280;61877;48.246;9.220;2023-05-07T05:13:31;94083.69;;;10.43;86.69
73600;BME280;61877;48.246;9.220;2023-05-07T05:15:57;94083.34;;;10.57;85.92
73600;BME280;61877;48.246;9.220;2023-05-07T05:18:25;94082.13;;;10.66;85.02
73600;BME280;61877;48.246;9.220;2023-05-07T05:21:02;94091.41;;;10.81;86.09
73600;BME280;61877;48.246;9.220;2023-05-07T05:23:28;94084.66;;;10.99;85.24
73600;BME280;61877;48.246;9.220;2023-05-07T05:25:56;94090.31;;;11.09;85.27
73600;BME280;61877;48.246;9.220;2023-05-07T05:28:24;94085.81;;;11.25;85.04
73600;BME280;61877;48.246;9.220;2023-05-07T05:30:53;94091.44;;;11.36;83.43
73600;BME280;61877;48.246;9.220;2023-05-07T05:33:27;94090.63;;;11.47;83.88
73600;BME280;61877;48.246;9.220;2023-05-07T05:35:54;94083.47;;;11.51;84.88
73600;BME280;61877;48.246;9.220;2023-05-07T05:38:20;94091.25;;;11.68;84.03
73600;BME280;61877;48.246;9.220;2023-05-07T05:40:51;94092.56;;;11.75;83.64
73600;BME280;61877;48.246;9.220;2023-05-07T05:43:21;94091.72;;;11.86;83.21
73600;BME280;61877;48.246;9.220;2023-05-07T05:46:08;94090.06;;;11.97;82.77
73600;BME280;61877;48.246;9.220;2023-05-07T05:48:34;94087.22;;;11.90;81.77
73600;BME280;61877;48.246;9.220;2023-05-07T05:51:01;94093.47;;;12.10;82.16
73600;BME280;61877;48.246;9.220;2023-05-07T05:53:26;94092.19;;;12.35;82.27
73600;BME280;61877;48.246;9.220;2023-05-07T05:55:52;94088.72;;;12.50;80.65
73600;BME280;61877;48.246;9.220;2023-05-07T05:58:20;94090.63;;;12.65;81.01
73600;BME280;61877;48.246;9.220;2023-05-07T06:00:46;94082.94;;;12.67;79.60
73600;BME280;61877;48.246;9.220;2023-05-07T06:03:11;94091.38;;;13.00;80.11
73600;BME280;61877;48.246;9.220;2023-05-07T06:05:37;94093.91;;;13.09;79.34
73600;BME280;61877;48.246;9.220;2023-05-07T06:08:04;94099.25;;;13.24;79.48
73600;BME280;61877;48.246;9.220;2023-05-07T06:10:30;94095.44;;;13.44;77.70
73600;BME280;61877;48.246;9.220;2023-05-07T06:13:00;94090.25;;;13.55;76.84
73600;BME280;61877;48.246;9.220;2023-05-07T06:15:26;94100.84;;;14.05;76.65
73600;BME280;61877;48.246;9.220;2023-05-07T06:17:54;94096.09;;;14.17;76.84
73600;BME280;61877;48.246;9.220;2023-05-07T06:20:20;94094.34;;;14.51;75.19
73600;BME280;61877;48.246;9.220;2023-05-07T06:22:51;94093.69;;;14.80;75.66
73600;BME280;61877;48.246;9.220;2023-05-07T06:25:32;94093.78;;;15.13;74.50
73600;BME280;61877;48.246;9.220;2023-05-07T06:27:58;94098.72;;;15.37;74.53
73600;BME280;61877;48.246;9.220;2023-05-07T06:30:23;94101.06;;;15.65;73.37
73600;BME280;61877;48.246;9.220;2023-05-07T06:32:49;94095.66;;;15.69;71.39
73600;BME280;61877;48.246;9.220;2023-05-07T06:35:14;94093.84;;;15.76;71.13
73600;BME280;61877;48.246;9.220;2023-05-07T06:37:44;94098.41;;;16.05;69.25
73600;BME280;61877;48.246;9.220;2023-05-07T06:41:28;94090.50;;;16.26;69.72
73600;BME280;61877;48.246;9.220;2023-05-07T06:43:13;94084.22;;;16.55;70.27
73600;BME280;61877;48.246;9.220;2023-05-07T07:07:22;94098.97;;;17.77;65.46
73600;BME280;61877;48.246;9.220;2023-05-07T07:18:28;94098.53;;;17.68;64.75
73600;BME280;61877;48.246;9.220;2023-05-07T07:20:54;94097.41;;;17.76;66.27
73600;BME280;61877;48.246;9.220;2023-05-07T07:26:23;94092.06;;;18.04;64.21
73600;BME280;61877;48.246;9.220;2023-05-07T07:31:52;94089.72;;;17.88;65.61
73600;BME280;61877;48.246;9.220;2023-05-07T07:37:20;94088.16;;;17.84;66.00
73600;BME280;61877;48.246;9.220;2023-05-07T07:39:51;94091.59;;;17.81;65.14
73600;BME280;61877;48.246;9.220;2023-05-07T07:45:26;94100.66;;;17.38;65.60
73600;BME280;61877;48.246;9.220;2023-05-07T07:48:16;94097.44;;;17.15;67.88
73600;BME280;61877;48.246;9.220;2023-05-07T07:50:42;94097.84;;;17.17;67.72
73600;BME280;61877;48.246;9.220;2023-05-07T07:53:07;94101.00;;;17.26;68.79
73600;BME280;61877;48.246;9.220;2023-05-07T07:55:38;94105.22;;;17.23;68.08
73600;BME280;61877;48.246;9.220;2023-05-07T07:58:11;94103.03;;;17.43;68.67
73600;BME280;61877;48.246;9.220;2023-05-07T08:00:48;94098.56;;;17.75;66.33
73600;BME280;61877;48.246;9.220;2023-05-07T08:03:17;94099.47;;;18.11;65.21
73600;BME280;61877;48.246;9.220;2023-05-07T08:08:45;94106.59;;;18.92;62.47
73600;BME280;61877;48.246;9.220;2023-05-07T08:11:11;94109.69;;;19.33;60.59
73600;BME280;61877;48.246;9.220;2023-05-07T08:13:38;94113.50;;;19.71;57.49
73600;BME280;61877;48.246;9.220;2023-05-07T08:16:05;94105.59;;;20.04;57.78
73600;BME280;61877;48.246;9.220;2023-05-07T08:18:53;94113.63;;;20.36;56.88
73600;BME280;61877;48.246;9.220;2023-05-07T08:21:32;94108.31;;;20.77;56.08
73600;BME280;61877;48.246;9.220;2023-05-07T08:24:32;94109.72;;;20.95;54.68
73600;BME280;61877;48.246;9.220;2023-05-07T08:26:57;94113.50;;;21.12;54.35
73600;BME280;61877;48.246;9.220;2023-05-07T08:29:23;94102.03;;;21.31;53.62
73600;BME280;61877;48.246;9.220;2023-05-07T08:31:54;94101.34;;;21.20;54.51
73600;BME280;61877;48.246;9.220;2023-05-07T08:34:21;94104.59;;;21.04;53.34
73600;BME280;61877;48.246;9.220;2023-05-07T08:36:46;94100.44;;;20.89;53.12
73600;BME280;61877;48.246;9.220;2023-05-07T08:39:12;94104.09;;;21.16;52.21
73600;BME280;61877;48.246;9.220;2023-05-07T08:41:38;94096.13;;;21.36;50.60
73600;BME280;61877;48.246;9.220;2023-05-07T08:44:12;94102.69;;;21.83;50.40
73600;BME280;61877;48.246;9.220;2023-05-07T08:46:47;94102.00;;;21.71;49.52
73600;BME280;61877;48.246;9.220;2023-05-07T08:50:09;94106.41;;;21.99;47.34
73600;BME280;61877;48.246;9.220;2023-05-07T08:53:04;94107.81;;;22.11;48.21
73600;BME280;61877;48.246;9.220;2023-05-07T08:55:32;94112.72;;;21.93;48.18
73600;BME280;61877;48.246;9.220;2023-05-07T08:57:57;94113.66;;;21.75;49.61
73600;BME280;61877;48.246;9.220;2023-05-07T09:00:23;94105.88;;;21.77;46.93
73600;BME280;61877;48.246;9.220;2023-05-07T09:02:48;94111.03;;;22.02;47.34
73600;BME280;61877;48.246;9.220;2023-05-07T09:05:16;94108.38;;;22.29;49.58
73600;BME280;61877;48.246;9.220;2023-05-07T09:07:41;94102.50;;;22.00;44.75
73600;BME280;61877;48.246;9.220;2023-05-07T09:10:08;94102.44;;;22.64;45.27
73600;BME280;61877;48.246;9.220;2023-05-07T09:12:34;94104.09;;;22.58;46.61
73600;BME280;61877;48.246;9.220;2023-05-07T09:14:59;94104.84;;;22.32;46.27
73600;BME280;61877;48.246;9.220;2023-05-07T09:17:25;94108.22;;;22.69;45.83
73600;BME280;61877;48.246;9.220;2023-05-07T09:19:50;94105.13;;;23.17;44.23
73600;BME280;61877;48.246;9.220;2023-05-07T09:22:17;94106.81;;;23.57;43.49
73600;BME280;61877;48.246;9.220;2023-05-07T09:24:47;94094.38;;;24.15;42.52
73600;BME280;61877;48.246;9.220;2023-05-07T09:27:13;94093.91;;;24.00;40.44
73600;BME280;61877;48.246;9.220;2023-05-07T09:29:38;94096.75;;;24.13;41.65
73600;BME280;61877;48.246;9.220;2023-05-07T09:32:06;94096.59;;;24.40;41.77
73600;BME280;61877;48.246;9.220;2023-05-07T09:34:32;94095.13;;;24.35;40.74
73600;BME280;61877;48.246;9.220;2023-05-07T09:36:59;94096.78;;;23.70;42.13
73600;BME280;61877;48.246;9.220;2023-05-07T09:39:44;94094.47;;;23.69;41.42
73600;BME280;61877;48.246;9.220;2023-05-07T09:42:13;94094.28;;;23.79;42.82
73600;BME280;61877;48.246;9.220;2023-05-07T09:44:40;94099.56;;;23.24;42.16
73600;BME280;61877;48.246;9.220;2023-05-07T09:47:06;94091.69;;;23.72;43.99
73600;BME280;61877;48.246;9.220;2023-05-07T09:49:34;94086.19;;;23.92;42.98
73600;BME280;61877;48.246;9.220;2023-05-07T09:52:04;94085.16;;;24.61;42.31
73600;BME280;61877;48.246;9.220;2023-05-07T09:54:32;94078.38;;;25.17;41.27
73600;BME280;61877;48.246;9.220;2023-05-07T09:56:58;94082.81;;;25.59;40.76
73600;BME280;61877;48.246;9.220;2023-05-07T09:59:24;94075.41;;;25.72;40.44
73600;BME280;61877;48.246;9.220;2023-05-07T10:01:52;94077.06;;;25.98;38.52
73600;BME280;61877;48.246;9.220;2023-05-07T10:04:31;94081.81;;;25.53;38.69
73600;BME280;61877;48.246;9.220;2023-05-07T10:07:03;94065.56;;;26.16;38.86
73600;BME280;61877;48.246;9.220;2023-05-07T10:09:30;94062.00;;;26.56;39.35
73600;BME280;61877;48.246;9.220;2023-05-07T10:12:00;94070.34;;;26.40;40.63
73600;BME280;61877;48.246;9.220;2023-05-07T10:14:27;94062.78;;;26.44;38.19
73600;BME280;61877;48.246;9.220;2023-05-07T10:16:53;94060.97;;;26.25;39.81
73600;BME280;61877;48.246;9.220;2023-05-07T10:19:19;94063.31;;;26.39;38.82
73600;BME280;61877;48.246;9.220;2023-05-07T10:21:51;94058.50;;;27.06;38.40
73600;BME280;61877;48.246;9.220;2023-05-07T10:24:29;94053.53;;;27.39;38.72
73600;BME280;61877;48.246;9.220;2023-05-07T10:26:58;94056.44;;;27.57;38.76
73600;BME280;61877;48.246;9.220;2023-05-07T10:29:33;94059.75;;;26.93;38.96
73600;BME280;61877;48.246;9.220;2023-05-07T10:32:11;94059.53;;;26.75;38.10
73600;BME280;61877;48.246;9.220;2023-05-07T10:34:48;94050.78;;;26.63;39.12
73600;BME280;61877;48.246;9.220;2023-05-07T10:37:15;94052.97;;;26.31;38.67
73600;BME280;61877;48.246;9.220;2023-05-07T10:39:42;94056.25;;;25.08;41.47
73600;BME280;61877;48.246;9.220;2023-05-07T10:42:09;94058.38;;;24.84;42.22
73600;BME280;61877;48.246;9.220;2023-05-07T10:44:35;94052.38;;;24.38;43.44
73600;BME280;61877;48.246;9.220;2023-05-07T10:47:07;94052.59;;;24.63;42.61
73600;BME280;61877;48.246;9.220;2023-05-07T10:49:35;94047.31;;;24.36;44.04
73600;BME280;61877;48.246;9.220;2023-05-07T10:52:33;94046.09;;;25.21;42.58
73600;BME280;61877;48.246;9.220;2023-05-07T10:55:21;94044.56;;;25.20;41.96
73600;BME280;61877;48.246;9.220;2023-05-07T10:57:52;94037.38;;;25.10;40.95
73600;BME280;61877;48.246;9.220;2023-05-07T11:00:42;94043.34;;;25.21;43.08
73600;BME280;61877;48.246;9.220;2023-05-07T11:03:10;94042.97;;;24.39;42.96
73600;BME280;61877;48.246;9.220;2023-05-07T11:05:38;94044.88;;;24.58;43.17
73600;BME280;61877;48.246;9.220;2023-05-07T11:11:12;94046.72;;;24.80;43.17
73600;BME280;61877;48.246;9.220;2023-05-07T11:13:43;94044.75;;;24.29;43.34
73600;BME280;61877;48.246;9.220;2023-05-07T11:16:19;94049.50;;;23.66;43.08
73600;BME280;61877;48.246;9.220;2023-05-07T11:18:50;94051.44;;;23.69;43.04
73600;BME280;61877;48.246;9.220;2023-05-07T11:21:34;94060.88;;;23.22;47.40
73600;BME280;61877;48.246;9.220;2023-05-07T11:24:04;94058.25;;;22.92;46.42
73600;BME280;61877;48.246;9.220;2023-05-07T11:26:44;94055.44;;;22.72;45.47
73600;BME280;61877;48.246;9.220;2023-05-07T11:29:13;94062.09;;;22.71;48.16
73600;BME280;61877;48.246;9.220;2023-05-07T11:32:06;94055.72;;;22.51;46.70
73600;BME280;61877;48.246;9.220;2023-05-07T11:34:36;94067.03;;;22.27;48.42
73600;BME280;61877;48.246;9.220;2023-05-07T11:37:36;94062.63;;;22.33;48.69
73600;BME280;61877;48.246;9.220;2023-05-07T11:40:09;94064.59;;;22.32;49.35
73600;BME280;61877;48.246;9.220;2023-05-07T11:43:09;94059.38;;;22.15;47.85
73600;BME280;61877;48.246;9.220;2023-05-07T11:46:05;94060.38;;;21.98;49.34
73600;BME280;61877;48.246;9.220;2023-05-07T11:48:32;94055.50;;;22.12;50.56
73600;BME280;61877;48.246;9.220;2023-05-07T11:51:01;94061.56;;;21.97;51.83
73600;BME280;61877;48.246;9.220;2023-05-07T11:53:35;94064.50;;;21.75;52.54
73600;BME280;61877;48.246;9.220;2023-05-07T11:56:02;94057.50;;;21.37;50.49
73600;BME280;61877;48.246;9.220;2023-05-07T11:58:31;94055.28;;;21.62;51.22
73600;BME280;61877;48.246;9.220;2023-05-07T12:01:01;94049.97;;;21.52;52.25
73600;BME280;61877;48.246;9.220;2023-05-07T12:03:26;94045.25;;;21.52;51.96
73600;BME280;61877;48.246;9.220;2023-05-07T12:05:52;94052.81;;;21.41;52.52
73600;BME280;61877;48.246;9.220;2023-05-07T12:08:30;94044.63;;;21.41;52.30
73600;BME280;61877;48.246;9.220;2023-05-07T12:10:56;94046.41;;;21.18;52.20
73600;BME280;61877;48.246;9.220;2023-05-07T12:16:29;94048.53;;;20.96;53.43
73600;BME280;61877;48.246;9.220;2023-05-07T12:18:58;94045.13;;;20.85;54.47
73600;BME280;61877;48.246;9.220;2023-05-07T12:24:45;94045.31;;;20.64;52.56
73600;BME280;61877;48.246;9.220;2023-05-07T12:27:36;94044.88;;;20.69;54.31
73600;BME280;61877;48.246;9.220;2023-05-07T12:30:02;94045.75;;;20.59;54.60
73600;BME280;61877;48.246;9.220;2023-05-07T12:32:29;94041.53;;;20.51;54.75
73600;BME280;61877;48.246;9.220;2023-05-07T12:34:55;94045.13;;;20.37;55.07
73600;BME280;61877;48.246;9.220;2023-05-07T12:37:23;94047.84;;;20.34;54.96
73600;BME280;61877;48.246;9.220;2023-05-07T12:39:50;94049.09;;;20.26;54.52
73600;BME280;61877;48.246;9.220;2023-05-07T12:42:32;94056.50;;;20.22;55.12
73600;BME280;61877;48.246;9.220;2023-05-07T12:44:59;94058.09;;;20.16;54.88
73600;BME280;61877;48.246;9.220;2023-05-07T12:47:25;94061.56;;;20.20;54.94
73600;BME280;61877;48.246;9.220;2023-05-07T12:49:52;94064.69;;;20.15;57.75
73600;BME280;61877;48.246;9.220;2023-05-07T12:52:20;94064.28;;;20.16;56.16
73600;BME280;61877;48.246;9.220;2023-05-07T12:54:48;94054.97;;;20.17;55.24
73600;BME280;61877;48.246;9.220;2023-05-07T12:57:14;94054.56;;;20.19;56.09
73600;BME280;61877;48.246;9.220;2023-05-07T12:59:41;94057.66;;;20.21;55.50
73600;BME280;61877;48.246;9.220;2023-05-07T13:02:07;94062.34;;;20.17;56.25
73600;BME280;61877;48.246;9.220;2023-05-07T13:04:35;94060.41;;;20.21;57.34
73600;BME280;61877;48.246;9.220;2023-05-07T13:07:05;94059.63;;;20.17;57.45
73600;BME280;61877;48.246;9.220;2023-05-07T13:10:05;94058.88;;;20.13;55.89
73600;BME280;61877;48.246;9.220;2023-05-07T13:12:34;94062.75;;;20.12;57.09
73600;BME280;61877;48.246;9.220;2023-05-07T13:15:06;94061.63;;;20.06;56.20
73600;BME280;61877;48.246;9.220;2023-05-07T13:17:35;94070.59;;;20.03;56.17
73600;BME280;61877;48.246;9.220;2023-05-07T13:23:28;94088.72;;;19.02;58.68
73600;BME280;61877;48.246;9.220;2023-05-07T13:26:25;94093.97;;;17.93;62.25
73600;BME280;61877;48.246;9.220;2023-05-07T13:35:17;94099.88;;;17.34;70.35
73600;BME280;61877;48.246;9.220;2023-05-07T13:37:43;94106.03;;;17.24;71.29
73600;BME280;61877;48.246;9.220;2023-05-07T13:40:11;94110.00;;;16.83;71.65
73600;BME280;61877;48.246;9.220;2023-05-07T13:42:37;94107.06;;;16.54;72.67
73600;BME280;61877;48.246;9.220;2023-05-07T13:45:03;94114.09;;;16.26;73.95
73600;BME280;61877;48.246;9.220;2023-05-07T13:47:30;94116.03;;;15.92;73.60
73600;BME280;61877;48.246;9.220;2023-05-07T13:49:56;94115.06;;;15.44;76.23
73600;BME280;61877;48.246;9.220;2023-05-07T13:52:22;94116.75;;;15.00;78.95
73600;BME280;61877;48.246;9.220;2023-05-07T13:54:47;94116.19;;;14.65;81.20
73600;BME280;61877;48.246;9.220;2023-05-07T13:57:15;94133.91;;;14.40;84.29
73600;BME280;61877;48.246;9.220;2023-05-07T13:59:42;94143.88;;;14.17;85.63
73600;BME280;61877;48.246;9.220;2023-05-07T14:02:08;94148.16;;;13.99;87.47
73600;BME280;61877;48.246;9.220;2023-05-07T14:07:02;94146.78;;;13.32;90.82
73600;BME280;61877;48.246;9.220;2023-05-07T14:09:27;94139.84;;;13.31;92.38
73600;BME280;61877;48.246;9.220;2023-05-07T14:11:52;94141.66;;;13.27;92.00
73600;BME280;61877;48.246;9.220;2023-05-07T14:14:19;94145.31;;;13.35;93.79
73600;BME280;61877;48.246;9.220;2023-05-07T14:16:45;94148.13;;;13.42;97.36
73600;BME280;61877;48.246;9.220;2023-05-07T14:19:10;94144.03;;;13.48;98.52
73600;BME280;61877;48.246;9.220;2023-05-07T14:21:36;94141.63;;;13.43;95.04
73600;BME280;61877;48.246;9.220;2023-05-07T14:24:01;94142.53;;;13.50;94.35